Time;durP1;ratioP1;P1;durP2;ratioP2;P2;SDS_P1;SDS_P2;PMS_P1;PMS_P2;Temp;Humidity;BMP_temperature;BMP_pressure;BME280_temperature;BME280_humidity;BME280_pressure;Samples;Min_cycle;Max_cycle;Signal;HPM_P1;HPM_P2
2023/03/21 00:02:03;;;;;;;;;;;12.30;75.20;;;;;;5007796;28;19929;-77
2023/03/21 00:04:30;;;;;;;;;;;12.20;75.30;;;;;;5006909;28;19968;-75
2023/03/21 00:06:58;;;;;;;;;;;12.30;75.40;;;;;;5009058;28;20048;-76
2023/03/21 00:09:25;;;;;;;;;;;12.20;75.40;;;;;;5004170;28;20578;-75
2023/03/21 00:11:51;;;;;;;;;;;12.30;75.50;;;;;;5006304;28;19936;-75
2023/03/21 00:14:18;;;;;;;;;;;12.20;75.50;;;;;;5001221;28;20012;-76
2023/03/21 00:16:49;;;;;;;;;;;12.20;75.50;;;;;;5003411;28;19976;-75
2023/03/21 00:19:16;;;;;;;;;;;12.20;75.60;;;;;;5001652;28;19929;-74
2023/03/21 00:21:42;;;;;;;;;;;12.20;75.70;;;;;;5004871;28;19937;-74
2023/03/21 00:24:11;;;;;;;;;;;12.20;75.70;;;;;;5002285;28;19930;-76
2023/03/21 00:26:38;;;;;;;;;;;12.10;75.80;;;;;;5004473;28;19938;-74
2023/03/21 00:29:04;;;;;;;;;;;12.10;75.80;;;;;;5006195;28;20603;-76
2023/03/21 00:31:31;;;;;;;;;;;12.10;75.90;;;;;;5005810;28;19940;-76
2023/03/21 00:33:57;;;;;;;;;;;12.00;75.90;;;;;;5004169;28;19930;-76
2023/03/21 00:36:24;;;;;;;;;;;12.00;75.90;;;;;;5004258;28;19929;-75
2023/03/21 00:38:51;;;;;;;;;;;12.00;75.90;;;;;;5003367;28;20606;-75
2023/03/21 00:41:19;;;;;;;;;;;12.00;76.00;;;;;;5007479;28;20722;-76
2023/03/21 00:43:46;;;;;;;;;;;12.00;76.10;;;;;;5006202;28;20003;-74
2023/03/21 00:46:12;;;;;;;;;;;12.00;76.10;;;;;;5003154;28;20406;-74
2023/03/21 00:48:39;;;;;;;;;;;12.00;76.20;;;;;;5003706;28;19933;-74
2023/03/21 00:51:12;;;;;;;;;;;11.90;76.20;;;;;;5004426;28;19976;-75
2023/03/21 00:53:38;;;;;;;;;;;11.90;76.20;;;;;;5005411;28;19930;-76
2023/03/21 00:56:05;;;;;;;;;;;11.90;76.30;;;;;;5004247;28;19933;-75
2023/03/21 00:58:33;;;;;;;;;;;11.90;76.40;;;;;;5001961;28;20399;-77
2023/03/21 01:01:01;;;;;;;;;;;11.90;76.40;;;;;;5005729;28;20459;-75
2023/03/21 01:03:27;;;;;;;;;;;11.90;76.40;;;;;;5005741;28;19938;-75
2023/03/21 01:06:06;;;;;;;;;;;11.90;76.50;;;;;;4999367;28;19933;-75
2023/03/21 01:08:34;;;;;;;;;;;11.90;76.60;;;;;;5005527;28;20020;-75
2023/03/21 01:11:02;;;;;;;;;;;11.90;76.70;;;;;;5002870;28;20423;-76
2023/03/21 01:13:28;;;;;;;;;;;11.80;76.60;;;;;;5003366;28;20350;-75
2023/03/21 01:15:58;;;;;;;;;;;11.80;76.70;;;;;;5006569;28;20616;-75
2023/03/21 01:18:26;;;;;;;;;;;11.80;76.80;;;;;;5001936;28;19937;-77
2023/03/21 01:20:53;;;;;;;;;;;11.70;76.80;;;;;;5001278;28;20670;-75
2023/03/21 01:23:19;;;;;;;;;;;11.80;76.90;;;;;;5002543;28;19934;-74
2023/03/21 01:25:47;;;;;;;;;;;11.70;76.90;;;;;;4999649;28;19929;-75
2023/03/21 01:28:13;;;;;;;;;;;11.70;76.90;;;;;;5002261;28;19929;-75
2023/03/21 01:30:44;;;;;;;;;;;11.60;76.90;;;;;;5004107;28;19925;-75
2023/03/21 01:33:12;;;;;;;;;;;11.70;77.00;;;;;;5002159;28;19934;-75
2023/03/21 01:35:38;;;;;;;;;;;11.70;77.10;;;;;;5001323;28;19929;-74
2023/03/21 01:38:05;;;;;;;;;;;11.70;77.20;;;;;;5004911;28;19937;-74
2023/03/21 01:40:31;;;;;;;;;;;11.60;77.20;;;;;;4996821;28;20231;-75
2023/03/21 01:42:58;;;;;;;;;;;11.60;77.20;;;;;;5004167;28;19983;-74
2023/03/21 01:45:43;;;;;;;;;;;11.60;77.20;;;;;;5011899;28;19930;-74
2023/03/21 01:48:10;;;;;;;;;;;11.50;77.20;;;;;;5005792;28;19984;-75
2023/03/21 01:50:38;;;;;;;;;;;11.50;77.20;;;;;;5002429;28;19930;-75
2023/03/21 01:53:05;;;;;;;;;;;11.60;77.30;;;;;;5002630;28;20362;-75
2023/03/21 01:55:32;;;;;;;;;;;11.50;77.30;;;;;;5001479;28;19933;-77
2023/03/21 01:57:59;;;;;;;;;;;11.50;77.40;;;;;;5002333;28;19930;-74
2023/03/21 02:00:28;;;;;;;;;;;11.50;77.40;;;;;;5001629;28;20666;-74
2023/03/21 02:02:58;;;;;;;;;;;11.50;77.50;;;;;;5007752;28;20279;-75
2023/03/21 02:05:27;;;;;;;;;;;11.50;77.50;;;;;;5002915;28;19976;-76
2023/03/21 02:07:55;;;;;;;;;;;11.50;77.60;;;;;;5009751;28;20433;-77
2023/03/21 02:10:22;;;;;;;;;;;11.50;77.60;;;;;;5003847;28;20273;-74
2023/03/21 02:12:48;;;;;;;;;;;11.50;77.70;;;;;;5007687;28;19933;-76
2023/03/21 02:15:15;;;;;;;;;;;11.50;77.70;;;;;;5006020;28;19933;-75
2023/03/21 02:17:44;;;;;;;;;;;11.40;77.70;;;;;;5006370;28;19929;-76
2023/03/21 02:20:28;;;;;;;;;;;11.40;77.70;;;;;;5002568;28;20499;-74
2023/03/21 02:23:06;;;;;;;;;;;11.40;77.70;;;;;;5002703;28;19929;-75
2023/03/21 02:25:56;;;;;;;;;;;11.40;77.70;;;;;;5002813;28;19929;-76
2023/03/21 02:28:25;;;;;;;;;;;11.30;77.70;;;;;;5000190;28;19929;-75
2023/03/21 02:31:03;;;;;;;;;;;11.30;77.70;;;;;;5003653;28;20569;-74
2023/03/21 02:33:47;;;;;;;;;;;11.30;77.80;;;;;;5001400;28;20468;-74
2023/03/21 02:36:25;;;;;;;;;;;11.30;77.80;;;;;;4998868;28;19963;-74
2023/03/21 02:38:55;;;;;;;;;;;11.30;77.90;;;;;;5002438;28;19933;-74
2023/03/21 02:41:25;;;;;;;;;;;11.30;78.00;;;;;;5005150;28;19969;-75
2023/03/21 02:43:54;;;;;;;;;;;11.30;78.00;;;;;;5002917;28;19939;-75
2023/03/21 02:46:22;;;;;;;;;;;11.20;78.00;;;;;;4999322;28;19930;-74
2023/03/21 02:48:52;;;;;;;;;;;11.20;78.00;;;;;;5002573;28;20072;-75
2023/03/21 02:51:21;;;;;;;;;;;11.20;78.10;;;;;;5002060;28;19936;-77
2023/03/21 02:53:50;;;;;;;;;;;11.20;78.20;;;;;;5002520;28;19929;-74
2023/03/21 02:56:19;;;;;;;;;;;11.20;78.20;;;;;;5000795;28;20387;-74
2023/03/21 02:58:46;;;;;;;;;;;11.20;78.20;;;;;;5002638;28;19929;-74
2023/03/21 03:01:12;;;;;;;;;;;11.10;78.20;;;;;;5006856;28;19929;-75
2023/03/21 03:03:39;;;;;;;;;;;11.10;78.20;;;;;;5003973;28;20474;-75
2023/03/21 03:06:11;;;;;;;;;;;11.10;78.20;;;;;;5003337;28;20316;-74
2023/03/21 03:08:42;;;;;;;;;;;11.10;78.30;;;;;;5006683;28;19929;-74
2023/03/21 03:11:16;;;;;;;;;;;11.10;78.40;;;;;;5004987;28;20048;-76
2023/03/21 03:13:53;;;;;;;;;;;11.00;78.50;;;;;;5007681;28;20009;-74
2023/03/21 03:16:24;;;;;;;;;;;11.00;78.40;;;;;;5004574;28;20033;-72
2023/03/21 03:18:52;;;;;;;;;;;11.00;78.50;;;;;;5004345;28;20024;-73
2023/03/21 03:21:22;;;;;;;;;;;11.00;78.50;;;;;;5007150;28;19937;-74
2023/03/21 03:23:50;;;;;;;;;;;10.90;78.60;;;;;;5003972;28;19936;-73
2023/03/21 03:26:18;;;;;;;;;;;10.90;78.70;;;;;;5005610;28;20423;-73
2023/03/21 03:28:47;;;;;;;;;;;11.00;78.70;;;;;;5004532;28;19936;-75
2023/03/21 03:31:20;;;;;;;;;;;11.00;79.50;;;;;;5002096;28;19937;-74
2023/03/21 03:33:50;;;;;;;;;;;10.90;78.70;;;;;;5008832;28;19929;-75
2023/03/21 03:36:18;;;;;;;;;;;10.90;78.80;;;;;;5003529;28;20323;-75
2023/03/21 03:38:46;;;;;;;;;;;10.90;78.80;;;;;;5004882;28;19932;-75
2023/03/21 03:41:17;;;;;;;;;;;10.90;78.80;;;;;;5003857;28;19979;-77
2023/03/21 03:43:47;;;;;;;;;;;10.90;78.80;;;;;;5005875;28;20440;-75
2023/03/21 03:46:17;;;;;;;;;;;10.90;78.90;;;;;;5005528;28;20493;-74
2023/03/21 03:48:47;;;;;;;;;;;10.80;78.90;;;;;;4999779;28;19929;-75
2023/03/21 03:51:16;;;;;;;;;;;10.90;79.10;;;;;;5005138;28;19940;-76
2023/03/21 03:53:44;;;;;;;;;;;10.80;79.10;;;;;;5007558;28;19929;-77
2023/03/21 03:56:12;;;;;;;;;;;10.80;79.40;;;;;;5006085;28;20292;-75
2023/03/21 03:58:39;;;;;;;;;;;10.80;79.20;;;;;;5001524;28;19945;-76
2023/03/21 04:01:06;;;;;;;;;;;10.80;79.20;;;;;;5005040;28;19933;-75
2023/03/21 04:03:35;;;;;;;;;;;10.80;79.30;;;;;;5005655;28;20055;-77
2023/03/21 04:06:02;;;;;;;;;;;10.80;79.30;;;;;;5005550;28;19987;-76
2023/03/21 04:08:29;;;;;;;;;;;10.80;79.40;;;;;;5009644;28;19933;-76
2023/03/21 04:10:56;;;;;;;;;;;10.80;79.40;;;;;;4996473;28;19930;-74
2023/03/21 04:13:22;;;;;;;;;;;10.80;79.40;;;;;;5003440;28;20387;-74
2023/03/21 04:15:49;;;;;;;;;;;10.80;79.50;;;;;;5002138;28;20441;-76
2023/03/21 04:18:15;;;;;;;;;;;10.70;79.50;;;;;;5007810;28;19960;-75
2023/03/21 04:20:44;;;;;;;;;;;10.70;79.60;;;;;;5010803;28;19933;-75
2023/03/21 04:23:11;;;;;;;;;;;10.70;79.70;;;;;;5007730;28;20017;-75
2023/03/21 04:25:38;;;;;;;;;;;10.70;79.70;;;;;;5002520;28;19956;-76
2023/03/21 04:28:05;;;;;;;;;;;10.70;79.80;;;;;;5003477;28;19991;-75
2023/03/21 04:30:33;;;;;;;;;;;10.70;79.90;;;;;;5005368;28;19937;-77
2023/03/21 04:32:59;;;;;;;;;;;10.60;79.90;;;;;;5002838;28;20068;-75
2023/03/21 04:35:27;;;;;;;;;;;10.60;79.90;;;;;;5008320;28;19930;-75
2023/03/21 04:37:55;;;;;;;;;;;10.60;80.00;;;;;;5003271;28;20322;-75
2023/03/21 04:40:23;;;;;;;;;;;10.60;80.10;;;;;;5001318;28;20244;-75
2023/03/21 04:42:50;;;;;;;;;;;10.60;80.20;;;;;;5003191;28;19934;-75
2023/03/21 04:45:17;;;;;;;;;;;10.50;80.30;;;;;;5004479;28;20058;-74
2023/03/21 04:47:43;;;;;;;;;;;10.60;80.40;;;;;;4998670;28;19936;-75
2023/03/21 04:50:11;;;;;;;;;;;10.60;80.40;;;;;;5005901;28;19975;-76
2023/03/21 04:52:38;;;;;;;;;;;10.50;80.40;;;;;;5005885;28;19929;-77
2023/03/21 04:55:08;;;;;;;;;;;10.60;80.50;;;;;;5006202;28;19929;-75
2023/03/21 04:57:35;;;;;;;;;;;10.50;80.40;;;;;;5005621;28;21106;-75
2023/03/21 05:00:04;;;;;;;;;;;10.50;80.50;;;;;;5002078;28;19941;-76
2023/03/21 05:02:30;;;;;;;;;;;10.50;80.50;;;;;;5003076;28;20717;-77
2023/03/21 05:04:57;;;;;;;;;;;10.50;80.50;;;;;;5003107;28;19937;-77
2023/03/21 05:07:25;;;;;;;;;;;10.50;80.60;;;;;;5003335;28;19975;-75
2023/03/21 05:09:51;;;;;;;;;;;10.50;80.60;;;;;;4999302;28;20012;-75
2023/03/21 05:12:19;;;;;;;;;;;10.50;80.60;;;;;;5003540;28;20713;-75
2023/03/21 05:14:46;;;;;;;;;;;10.50;80.70;;;;;;5007329;28;19929;-74
2023/03/21 05:17:21;;;;;;;;;;;10.50;80.70;;;;;;5001817;28;19933;-74
2023/03/21 05:19:49;;;;;;;;;;;10.50;80.70;;;;;;5001485;28;19937;-75
2023/03/21 05:22:18;;;;;;;;;;;10.40;81.40;;;;;;5000305;28;19937;-76
2023/03/21 05:24:48;;;;;;;;;;;10.50;80.80;;;;;;5000802;28;20350;-75
2023/03/21 05:27:33;;;;;;;;;;;10.40;80.70;;;;;;5004149;28;19933;-76
2023/03/21 05:30:02;;;;;;;;;;;10.40;80.80;;;;;;5002773;28;19929;-76
2023/03/21 05:32:28;;;;;;;;;;;10.40;80.90;;;;;;5003879;28;19936;-75
2023/03/21 05:34:55;;;;;;;;;;;10.40;80.90;;;;;;5002077;28;20315;-75
2023/03/21 05:37:22;;;;;;;;;;;10.40;80.90;;;;;;4999752;28;19938;-75
2023/03/21 05:39:48;;;;;;;;;;;10.40;81.00;;;;;;5001842;28;19934;-77
2023/03/21 05:42:15;;;;;;;;;;;10.30;80.90;;;;;;5005436;28;19937;-75
2023/03/21 05:44:41;;;;;;;;;;;10.40;81.00;;;;;;5010399;28;19926;-74
2023/03/21 05:47:09;;;;;;;;;;;10.40;81.10;;;;;;5008252;28;19940;-75
2023/03/21 05:49:36;;;;;;;;;;;10.40;81.10;;;;;;5005970;28;19995;-75
2023/03/21 05:52:02;;;;;;;;;;;10.40;81.20;;;;;;5013108;28;19935;-77
2023/03/21 05:54:29;;;;;;;;;;;10.30;81.20;;;;;;5003352;28;19933;-76
2023/03/21 05:56:55;;;;;;;;;;;10.30;81.20;;;;;;5002820;28;19929;-77
2023/03/21 05:59:22;;;;;;;;;;;10.40;81.30;;;;;;5002270;28;19929;-75
2023/03/21 06:01:49;;;;;;;;;;;10.30;81.30;;;;;;4996567;28;19933;-76
2023/03/21 06:04:17;;;;;;;;;;;10.30;81.30;;;;;;5003252;28;19926;-75
2023/03/21 06:06:43;;;;;;;;;;;10.30;81.40;;;;;;5000469;28;19933;-77
2023/03/21 06:09:10;;;;;;;;;;;10.30;81.40;;;;;;4997973;28;19937;-76
2023/03/21 06:11:38;;;;;;;;;;;10.30;81.50;;;;;;5005744;28;21149;-75
2023/03/21 06:14:04;;;;;;;;;;;10.30;81.50;;;;;;5001273;28;19937;-74
2023/03/21 06:16:31;;;;;;;;;;;10.20;81.50;;;;;;5002801;28;19933;-76
2023/03/21 06:18:58;;;;;;;;;;;10.30;81.60;;;;;;5002703;28;20462;-74
2023/03/21 06:21:25;;;;;;;;;;;10.20;81.60;;;;;;5001431;28;19988;-73
2023/03/21 06:23:52;;;;;;;;;;;10.20;81.60;;;;;;4999191;28;19934;-73
2023/03/21 06:26:21;;;;;;;;;;;10.20;81.60;;;;;;4992651;28;19937;-75
2023/03/21 06:28:48;;;;;;;;;;;10.20;81.70;;;;;;4996448;28;19936;-75
2023/03/21 06:31:14;;;;;;;;;;;10.20;81.70;;;;;;5000853;28;19929;-73
2023/03/21 06:33:41;;;;;;;;;;;10.20;81.70;;;;;;5005491;28;19983;-73
2023/03/21 06:36:08;;;;;;;;;;;10.20;81.80;;;;;;5007942;28;20474;-71
2023/03/21 06:38:37;;;;;;;;;;;10.20;81.80;;;;;;5012687;28;19943;-68
2023/03/21 06:41:03;;;;;;;;;;;10.20;81.90;;;;;;5010276;28;19940;-72
2023/03/21 06:43:30;;;;;;;;;;;10.20;81.90;;;;;;5008392;28;20262;-69
2023/03/21 06:45:57;;;;;;;;;;;10.20;82.00;;;;;;5015085;28;19929;-69
2023/03/21 06:48:24;;;;;;;;;;;10.20;82.00;;;;;;5010205;28;19956;-73
2023/03/21 06:50:51;;;;;;;;;;;10.20;82.00;;;;;;5008974;28;20315;-70
2023/03/21 06:53:19;;;;;;;;;;;10.10;81.90;;;;;;5015068;28;19930;-70
2023/03/21 06:55:50;;;;;;;;;;;10.20;82.30;;;;;;5009297;28;20402;-70
2023/03/21 06:58:17;;;;;;;;;;;10.20;82.00;;;;;;5011422;28;20805;-69
2023/03/21 07:00:44;;;;;;;;;;;10.20;82.00;;;;;;5010649;28;20004;-71
2023/03/21 07:03:11;;;;;;;;;;;10.20;82.00;;;;;;5007619;28;19936;-69
2023/03/21 07:05:38;;;;;;;;;;;10.20;82.00;;;;;;5009602;28;19941;-71
2023/03/21 07:08:05;;;;;;;;;;;10.10;82.00;;;;;;5010893;28;19935;-69
2023/03/21 07:10:31;;;;;;;;;;;10.10;82.00;;;;;;5008613;28;19971;-72
2023/03/21 07:12:59;;;;;;;;;;;10.20;82.00;;;;;;5010290;28;20422;-68
2023/03/21 07:15:26;;;;;;;;;;;10.20;82.00;;;;;;5006215;28;19933;-69
2023/03/21 07:17:52;;;;;;;;;;;10.10;82.00;;;;;;5009142;28;19925;-70
2023/03/21 07:20:19;;;;;;;;;;;10.20;82.00;;;;;;5011426;28;19925;-70
2023/03/21 07:22:46;;;;;;;;;;;10.20;82.10;;;;;;5012991;28;19929;-70
2023/03/21 07:25:12;;;;;;;;;;;10.20;82.10;;;;;;5008192;28;19933;-72
2023/03/21 07:27:39;;;;;;;;;;;10.20;82.10;;;;;;5011058;28;19933;-72
2023/03/21 07:30:08;;;;;;;;;;;10.10;82.00;;;;;;5009212;28;19933;-70
2023/03/21 07:32:36;;;;;;;;;;;10.20;82.20;;;;;;5012326;28;19984;-70
2023/03/21 07:35:03;;;;;;;;;;;10.10;82.00;;;;;;5004792;28;19930;-72
2023/03/21 07:37:30;;;;;;;;;;;10.20;82.10;;;;;;5007469;28;19929;-70
2023/03/21 07:39:56;;;;;;;;;;;10.20;82.10;;;;;;5009860;28;20032;-72
2023/03/21 07:42:23;;;;;;;;;;;10.10;82.00;;;;;;5011513;28;19941;-70
2023/03/21 07:44:49;;;;;;;;;;;10.10;82.00;;;;;;5012755;28;19937;-72
2023/03/21 07:47:17;;;;;;;;;;;10.20;82.00;;;;;;5006372;28;19984;-69
2023/03/21 07:49:44;;;;;;;;;;;10.20;82.00;;;;;;5006253;28;19937;-70
2023/03/21 07:52:10;;;;;;;;;;;10.10;81.90;;;;;;5005643;28;19929;-68
2023/03/21 07:54:37;;;;;;;;;;;10.10;81.90;;;;;;5005478;28;19933;-71
2023/03/21 07:57:03;;;;;;;;;;;10.20;81.90;;;;;;5010016;28;19986;-72
2023/03/21 07:59:30;;;;;;;;;;;10.20;81.90;;;;;;4997065;28;20020;-76
2023/03/21 08:01:57;;;;;;;;;;;10.20;81.80;;;;;;5001101;28;19976;-75
2023/03/21 08:04:24;;;;;;;;;;;10.30;81.80;;;;;;5002570;28;20716;-76
2023/03/21 08:06:51;;;;;;;;;;;10.20;81.60;;;;;;5004488;28;20740;-74
2023/03/21 08:09:17;;;;;;;;;;;10.30;81.60;;;;;;4997815;28;20470;-77
2023/03/21 08:11:44;;;;;;;;;;;10.20;82.30;;;;;;5001094;28;19936;-75
2023/03/21 08:14:11;;;;;;;;;;;10.30;81.50;;;;;;5002687;28;19962;-75
2023/03/21 08:16:37;;;;;;;;;;;10.30;81.50;;;;;;5004595;28;19930;-74
2023/03/21 08:19:04;;;;;;;;;;;10.30;81.40;;;;;;5006255;28;19929;-75
2023/03/21 08:21:32;;;;;;;;;;;10.40;81.40;;;;;;5000969;28;19937;-77
2023/03/21 08:23:58;;;;;;;;;;;10.40;81.30;;;;;;4990402;28;19933;-75
2023/03/21 08:26:25;;;;;;;;;;;10.40;81.20;;;;;;4984738;28;19929;-76
2023/03/21 08:28:51;;;;;;;;;;;10.50;81.20;;;;;;4996545;28;19932;-76
2023/03/21 08:31:20;;;;;;;;;;;10.50;81.20;;;;;;4990301;28;19992;-77
2023/03/21 08:33:49;;;;;;;;;;;10.50;81.20;;;;;;4991337;28;19949;-76
2023/03/21 08:36:16;;;;;;;;;;;10.60;81.20;;;;;;4993226;28;20390;-76
2023/03/21 08:38:46;;;;;;;;;;;10.60;81.00;;;;;;5001172;28;19933;-75
2023/03/21 08:41:13;;;;;;;;;;;10.70;80.90;;;;;;5002621;28;20687;-77
2023/03/21 08:43:39;;;;;;;;;;;10.70;80.80;;;;;;5004082;28;19945;-77
2023/03/21 08:46:06;;;;;;;;;;;10.70;80.70;;;;;;4998411;28;19925;-75
2023/03/21 08:48:33;;;;;;;;;;;10.80;80.70;;;;;;5002730;28;20209;-77
2023/03/21 08:50:59;;;;;;;;;;;10.80;80.60;;;;;;5003932;28;20528;-77
2023/03/21 08:53:26;;;;;;;;;;;10.80;80.40;;;;;;5003876;28;19933;-77
2023/03/21 08:55:54;;;;;;;;;;;10.90;80.20;;;;;;4996883;28;19973;-75
2023/03/21 08:58:21;;;;;;;;;;;10.90;80.20;;;;;;4997349;28;20386;-76
2023/03/21 09:00:47;;;;;;;;;;;10.90;80.00;;;;;;5007361;28;19929;-76
2023/03/21 09:03:14;;;;;;;;;;;11.00;80.00;;;;;;5007964;28;19933;-76
2023/03/21 09:05:40;;;;;;;;;;;11.00;80.00;;;;;;5005494;28;19937;-75
2023/03/21 09:08:07;;;;;;;;;;;11.00;79.80;;;;;;5005297;28;20347;-77
2023/03/21 09:10:33;;;;;;;;;;;11.10;79.80;;;;;;4996324;28;19976;-77
2023/03/21 09:13:01;;;;;;;;;;;11.10;79.60;;;;;;5001179;28;19930;-77
2023/03/21 09:15:28;;;;;;;;;;;11.10;79.50;;;;;;5001362;28;19936;-77
2023/03/21 09:17:57;;;;;;;;;;;11.10;79.50;;;;;;5002876;28;19996;-77
2023/03/21 09:20:29;;;;;;;;;;;11.10;79.50;;;;;;4995031;28;19992;-77
2023/03/21 09:22:57;;;;;;;;;;;11.20;79.50;;;;;;5002695;28;19945;-75
2023/03/21 09:25:23;;;;;;;;;;;11.20;79.40;;;;;;4999682;28;19934;-76
2023/03/21 09:27:52;;;;;;;;;;;11.20;79.30;;;;;;5004719;28;19930;-75
2023/03/21 09:30:20;;;;;;;;;;;11.10;79.30;;;;;;4997013;28;19965;-78
2023/03/21 09:32:47;;;;;;;;;;;11.20;79.40;;;;;;4998233;28;19929;-76
2023/03/21 09:35:14;;;;;;;;;;;11.20;79.40;;;;;;4998847;28;19934;-76
2023/03/21 09:37:41;;;;;;;;;;;11.20;79.30;;;;;;5004016;28;21636;-76
2023/03/21 09:40:14;;;;;;;;;;;11.20;79.30;;;;;;5002130;28;19936;-76
2023/03/21 09:42:45;;;;;;;;;;;11.20;79.30;;;;;;5002653;28;21326;-76
2023/03/21 09:45:15;;;;;;;;;;;11.30;79.50;;;;;;5003363;28;19936;-75
2023/03/21 09:47:51;;;;;;;;;;;11.20;79.40;;;;;;5001716;28;20199;-76
2023/03/21 09:50:20;;;;;;;;;;;11.30;79.50;;;;;;5001246;28;19934;-75
2023/03/21 09:52:50;;;;;;;;;;;11.30;79.40;;;;;;4998019;28;19929;-72
2023/03/21 09:55:20;;;;;;;;;;;11.30;79.30;;;;;;5005883;28;20519;-71
2023/03/21 09:57:48;;;;;;;;;;;11.30;79.30;;;;;;5003053;28;19935;-69
2023/03/21 10:00:19;;;;;;;;;;;11.30;79.30;;;;;;5005897;28;19984;-69
2023/03/21 10:02:48;;;;;;;;;;;11.30;79.20;;;;;;4999948;28;19929;-71
2023/03/21 10:05:18;;;;;;;;;;;11.40;79.10;;;;;;4997032;28;19929;-71
2023/03/21 10:07:47;;;;;;;;;;;11.40;79.10;;;;;;5002796;28;19933;-70
2023/03/21 10:10:16;;;;;;;;;;;11.40;79.10;;;;;;4998393;28;20351;-71
2023/03/21 10:12:44;;;;;;;;;;;11.40;79.00;;;;;;5004707;28;19933;-70
2023/03/21 10:15:13;;;;;;;;;;;11.50;78.80;;;;;;5005327;28;19936;-70
2023/03/21 10:17:42;;;;;;;;;;;11.50;78.70;;;;;;5000840;28;20017;-71
2023/03/21 10:20:14;;;;;;;;;;;11.50;78.70;;;;;;5003043;28;19929;-72
2023/03/21 10:22:40;;;;;;;;;;;11.60;78.80;;;;;;5002708;28;19929;-70
2023/03/21 10:25:08;;;;;;;;;;;11.50;78.70;;;;;;4999552;28;20016;-70
2023/03/21 10:27:35;;;;;;;;;;;11.50;78.60;;;;;;4999770;28;19933;-69
2023/03/21 10:30:04;;;;;;;;;;;11.60;78.60;;;;;;5008608;28;19930;-72
2023/03/21 10:32:31;;;;;;;;;;;11.60;78.60;;;;;;5008393;28;19930;-72
2023/03/21 10:34:58;;;;;;;;;;;11.60;78.60;;;;;;5003834;28;19933;-70
2023/03/21 10:37:26;;;;;;;;;;;11.60;78.50;;;;;;5011640;28;19933;-71
2023/03/21 10:39:53;;;;;;;;;;;11.70;78.40;;;;;;5005101;28;20068;-69
2023/03/21 10:42:22;;;;;;;;;;;11.70;78.30;;;;;;5001054;28;19936;-69
2023/03/21 10:44:50;;;;;;;;;;;11.70;78.30;;;;;;5003478;28;19983;-72
2023/03/21 10:47:20;;;;;;;;;;;11.70;78.10;;;;;;5007276;28;20020;-69
2023/03/21 10:49:47;;;;;;;;;;;11.80;78.10;;;;;;5002945;28;19937;-70
2023/03/21 10:52:15;;;;;;;;;;;11.80;78.10;;;;;;5002810;28;19933;-72
2023/03/21 10:54:43;;;;;;;;;;;11.80;78.00;;;;;;5004126;28;19933;-71
2023/03/21 10:57:12;;;;;;;;;;;11.80;77.80;;;;;;5007790;28;19930;-70
2023/03/21 10:59:41;;;;;;;;;;;11.90;77.90;;;;;;4998741;28;20339;-73
2023/03/21 11:02:15;;;;;;;;;;;11.90;77.90;;;;;;5002839;28;19925;-72
2023/03/21 11:04:43;;;;;;;;;;;11.90;78.00;;;;;;5002070;28;19929;-70
2023/03/21 11:07:13;;;;;;;;;;;11.90;77.80;;;;;;5003551;28;19925;-70
2023/03/21 11:09:45;;;;;;;;;;;11.90;77.70;;;;;;5001906;28;19933;-72
2023/03/21 11:12:13;;;;;;;;;;;12.00;77.80;;;;;;5008865;28;20431;-70
2023/03/21 11:14:40;;;;;;;;;;;12.00;77.70;;;;;;5007146;28;20404;-73
2023/03/21 11:17:08;;;;;;;;;;;12.00;77.60;;;;;;5000207;28;20020;-69
2023/03/21 11:19:35;;;;;;;;;;;12.00;77.30;;;;;;5008217;28;19999;-70
2023/03/21 11:22:05;;;;;;;;;;;12.00;77.00;;;;;;5006108;28;19930;-72
2023/03/21 11:24:32;;;;;;;;;;;12.10;77.00;;;;;;5005470;28;19953;-74
2023/03/21 11:27:04;;;;;;;;;;;12.10;77.00;;;;;;5006917;28;19929;-72
2023/03/21 11:29:33;;;;;;;;;;;12.10;76.90;;;;;;5005968;28;20415;-74
2023/03/21 11:32:01;;;;;;;;;;;12.10;76.90;;;;;;5006459;28;19929;-73
2023/03/21 11:34:30;;;;;;;;;;;12.10;76.90;;;;;;5001673;28;19933;-70
2023/03/21 11:36:58;;;;;;;;;;;12.20;76.90;;;;;;5007367;28;19933;-71
2023/03/21 11:39:29;;;;;;;;;;;12.20;76.80;;;;;;4998462;28;20366;-72
2023/03/21 11:41:55;;;;;;;;;;;12.20;76.80;;;;;;5007047;28;20323;-70
2023/03/21 11:44:27;;;;;;;;;;;12.30;76.50;;;;;;5007417;28;19936;-70
2023/03/21 11:46:54;;;;;;;;;;;12.30;76.40;;;;;;5009933;28;19929;-72
2023/03/21 11:49:21;;;;;;;;;;;12.30;75.80;;;;;;5010359;28;19929;-70
2023/03/21 11:51:52;;;;;;;;;;;12.40;75.20;;;;;;5003666;28;19937;-70
2023/03/21 11:54:21;;;;;;;;;;;12.50;75.10;;;;;;5002734;28;20422;-73
2023/03/21 11:56:50;;;;;;;;;;;12.50;74.60;;;;;;5006219;28;19936;-71
2023/03/21 11:59:22;;;;;;;;;;;12.60;74.20;;;;;;5004878;28;19933;-69
2023/03/21 12:02:00;;;;;;;;;;;12.70;74.10;;;;;;5008386;28;20415;-71
2023/03/21 12:04:34;;;;;;;;;;;12.70;74.30;;;;;;4999618;28;19929;-72
2023/03/21 12:07:08;;;;;;;;;;;12.70;74.40;;;;;;5005361;28;19929;-71
2023/03/21 12:09:37;;;;;;;;;;;12.80;74.50;;;;;;5008991;28;19938;-69
2023/03/21 12:12:13;;;;;;;;;;;12.80;74.60;;;;;;5008320;28;19933;-71
2023/03/21 12:14:46;;;;;;;;;;;12.80;74.70;;;;;;5011653;28;19944;-71
2023/03/21 12:17:18;;;;;;;;;;;12.90;74.70;;;;;;5002593;28;19929;-72
2023/03/21 12:19:55;;;;;;;;;;;12.90;74.60;;;;;;5003239;28;19941;-75
2023/03/21 12:22:26;;;;;;;;;;;12.90;74.60;;;;;;4995934;28;19961;-75
2023/03/21 12:24:54;;;;;;;;;;;13.00;74.40;;;;;;4996836;28;19933;-74
2023/03/21 12:27:24;;;;;;;;;;;13.00;74.20;;;;;;5003116;28;20519;-75
2023/03/21 12:29:55;;;;;;;;;;;13.00;74.20;;;;;;4999286;28;19933;-74
2023/03/21 12:32:34;;;;;;;;;;;13.10;74.30;;;;;;4999627;28;19933;-75
2023/03/21 12:35:16;;;;;;;;;;;13.10;74.30;;;;;;4998548;28;19929;-73
2023/03/21 12:37:48;;;;;;;;;;;13.10;74.30;;;;;;4997936;28;20681;-74
2023/03/21 12:40:20;;;;;;;;;;;13.20;74.00;;;;;;5001782;28;19964;-75
2023/03/21 12:42:55;;;;;;;;;;;13.20;73.80;;;;;;4999480;28;19933;-75
2023/03/21 12:45:23;;;;;;;;;;;13.20;73.10;;;;;;5001607;28;19929;-74
2023/03/21 12:47:55;;;;;;;;;;;13.30;73.20;;;;;;5001384;28;20398;-75
2023/03/21 12:50:24;;;;;;;;;;;13.30;72.90;;;;;;4999749;28;20127;-73
2023/03/21 12:52:53;;;;;;;;;;;13.30;73.00;;;;;;5004312;28;19936;-75
2023/03/21 12:55:22;;;;;;;;;;;13.40;73.10;;;;;;5002665;28;19940;-74
2023/03/21 12:57:49;;;;;;;;;;;13.40;73.10;;;;;;4994823;28;20503;-73
2023/03/21 13:00:18;;;;;;;;;;;13.50;73.10;;;;;;4996488;28;19941;-74
2023/03/21 13:02:49;;;;;;;;;;;13.50;72.80;;;;;;5001640;28;19937;-76
2023/03/21 13:05:19;;;;;;;;;;;13.50;72.40;;;;;;5002531;28;19935;-73
2023/03/21 13:07:48;;;;;;;;;;;13.50;72.30;;;;;;5001926;28;19936;-74
2023/03/21 13:10:16;;;;;;;;;;;13.50;72.30;;;;;;4998884;28;20555;-70
2023/03/21 13:12:51;;;;;;;;;;;13.50;72.30;;;;;;5004918;28;19949;-73
2023/03/21 13:15:29;;;;;;;;;;;13.50;72.30;;;;;;5003242;28;20540;-73
2023/03/21 13:17:59;;;;;;;;;;;13.60;72.00;;;;;;4999723;28;19933;-71
2023/03/21 13:20:32;;;;;;;;;;;13.60;72.90;;;;;;5005804;28;19941;-73
2023/03/21 13:22:59;;;;;;;;;;;13.60;72.30;;;;;;5004001;28;19929;-72
2023/03/21 13:25:27;;;;;;;;;;;13.60;72.30;;;;;;5003711;28;19940;-72
2023/03/21 13:27:54;;;;;;;;;;;13.60;72.30;;;;;;5003070;28;19936;-69
2023/03/21 13:30:22;;;;;;;;;;;13.60;72.20;;;;;;5007119;28;19929;-70
2023/03/21 13:32:49;;;;;;;;;;;13.60;72.10;;;;;;5004126;28;19933;-72
2023/03/21 13:35:18;;;;;;;;;;;13.60;72.00;;;;;;4998363;28;19940;-68
2023/03/21 13:37:50;;;;;;;;;;;13.70;71.90;;;;;;5007361;28;20008;-69
2023/03/21 13:40:21;;;;;;;;;;;13.70;71.50;;;;;;5000025;28;19929;-71
2023/03/21 13:42:50;;;;;;;;;;;13.70;71.60;;;;;;5006374;28;19957;-71
2023/03/21 13:45:23;;;;;;;;;;;13.80;71.60;;;;;;4999566;28;19940;-76
2023/03/21 13:47:53;;;;;;;;;;;13.80;71.10;;;;;;4993242;28;20420;-80
2023/03/21 13:50:41;;;;;;;;;;;13.80;70.80;;;;;;5002015;28;19933;-78
2023/03/21 13:53:19;;;;;;;;;;;13.80;71.00;;;;;;4988450;28;20517;-77
2023/03/21 13:55:46;;;;;;;;;;;13.80;70.70;;;;;;4993560;28;19925;-77
2023/03/21 13:58:22;;;;;;;;;;;13.80;70.70;;;;;;5001603;28;19929;-78
2023/03/21 14:01:04;;;;;;;;;;;13.90;70.80;;;;;;5006389;28;19925;-79
2023/03/21 14:03:34;;;;;;;;;;;13.90;70.50;;;;;;4997295;28;19930;-79
2023/03/21 14:06:00;;;;;;;;;;;13.90;70.60;;;;;;5000409;28;19992;-77
2023/03/21 14:08:29;;;;;;;;;;;14.00;70.90;;;;;;4998220;28;19933;-77
2023/03/21 14:10:58;;;;;;;;;;;14.00;71.10;;;;;;4994357;28;19933;-77
2023/03/21 14:13:26;;;;;;;;;;;14.00;71.00;;;;;;5002668;28;19925;-76
2023/03/21 14:15:53;;;;;;;;;;;14.00;70.70;;;;;;5002287;28;19929;-78
2023/03/21 14:18:21;;;;;;;;;;;14.10;70.50;;;;;;5001142;28;19933;-77
2023/03/21 14:20:52;;;;;;;;;;;14.10;70.40;;;;;;5004115;28;19940;-80
2023/03/21 14:23:19;;;;;;;;;;;14.20;69.70;;;;;;4989698;28;19933;-77
2023/03/21 14:25:47;;;;;;;;;;;14.20;69.60;;;;;;4996606;28;19930;-77